sensor_id;sensor_type;location;lat;lon;timestamp;pressure;altitude;pressure_sealevel;temperature;humidity
40502;BME280;29631;49.168;9.848;2023-04-09T00:02:17;97292.00;;;13.80;79.19
40502;BME280;29631;49.168;9.848;2023-04-09T00:04:43;97302.78;;;13.85;79.31
40502;BME280;29631;49.168;9.848;2023-04-09T00:07:09;97285.91;;;13.73;78.68
40502;BME280;29631;49.168;9.848;2023-04-09T00:09:34;97267.56;;;13.65;79.37
40502;BME280;29631;49.168;9.848;2023-04-09T00:12:00;97279.38;;;13.69;79.01
40502;BME280;29631;49.168;9.848;2023-04-09T00:14:26;97316.22;;;13.90;79.02
40502;BME280;29631;49.168;9.848;2023-04-09T00:16:52;97281.41;;;13.74;79.16
40502;BME280;29631;49.168;9.848;2023-04-09T00:19:19;97284.28;;;13.72;79.17
40502;BME280;29631;49.168;9.848;2023-04-09T00:21:45;97282.63;;;13.71;79.16
40502;BME280;29631;49.168;9.848;2023-04-09T00:24:11;97298.50;;;13.77;79.56
40502;BME280;29631;49.168;9.848;2023-04-09T00:26:37;97263.50;;;13.56;78.84
40502;BME280;29631;49.168;9.848;2023-04-09T00:29:03;97295.66;;;13.73;79.11
40502;BME280;29631;49.168;9.848;2023-04-09T00:31:28;97283.28;;;13.60;79.34
40502;BME280;29631;49.168;9.848;2023-04-09T00:33:54;97297.31;;;13.74;79.43
40502;BME280;29631;49.168;9.848;2023-04-09T00:36:20;97302.38;;;13.75;79.83
40502;BME280;29631;49.168;9.848;2023-04-09T00:38:46;97295.66;;;13.73;79.35
40502;BME280;29631;49.168;9.848;2023-04-09T00:41:13;97284.91;;;13.61;79.42
40502;BME280;29631;49.168;9.848;2023-04-09T00:43:38;97298.75;;;13.70;79.15
40502;BME280;29631;49.168;9.848;2023-04-09T00:46:04;97294.66;;;13.74;79.64
40502;BME280;29631;49.168;9.848;2023-04-09T00:48:30;97302.38;;;13.75;79.22
40502;BME280;29631;49.168;9.848;2023-04-09T00:50:56;97285.69;;;13.68;79.17
40502;BME280;29631;49.168;9.848;2023-04-09T00:53:22;97274.31;;;13.61;79.90
40502;BME280;29631;49.168;9.848;2023-04-09T00:55:48;97292.22;;;13.72;79.00
40502;BME280;29631;49.168;9.848;2023-04-09T00:58:13;97282.47;;;13.60;79.69
40502;BME280;29631;49.168;9.848;2023-04-09T01:00:40;97302.19;;;13.77;79.70
40502;BME280;29631;49.168;9.848;2023-04-09T01:03:06;97301.38;;;13.76;78.88
40502;BME280;29631;49.168;9.848;2023-04-09T01:05:55;97314.81;;;13.81;79.73
40502;BME280;29631;49.168;9.848;2023-04-09T01:16:41;97296.50;;;13.73;79.54
40502;BME280;29631;49.168;9.848;2023-04-09T01:19:38;97305.03;;;13.75;80.03
40502;BME280;29631;49.168;9.848;2023-04-09T01:25:06;97296.91;;;13.77;80.24
40502;BME280;29631;49.168;9.848;2023-04-09T01:27:46;97300.16;;;13.72;79.29
40502;BME280;29631;49.168;9.848;2023-04-09T01:30:19;97286.75;;;13.67;79.29
40502;BME280;29631;49.168;9.848;2023-04-09T01:32:46;97261.91;;;13.49;79.79
40502;BME280;29631;49.168;9.848;2023-04-09T01:35:12;97289.97;;;13.69;79.99
40502;BME280;29631;49.168;9.848;2023-04-09T01:37:39;97268.22;;;13.54;79.45
40502;BME280;29631;49.168;9.848;2023-04-09T01:40:07;97301.00;;;13.66;79.65
40502;BME280;29631;49.168;9.848;2023-04-09T01:42:34;97283.88;;;13.62;79.70
40502;BME280;29631;49.168;9.848;2023-04-09T01:45:00;97274.94;;;13.57;79.35
40502;BME280;29631;49.168;9.848;2023-04-09T01:47:27;97273.31;;;13.49;80.07
40502;BME280;29631;49.168;9.848;2023-04-09T01:49:53;97289.59;;;13.59;79.65
40502;BME280;29631;49.168;9.848;2023-04-09T01:52:19;97284.31;;;13.53;79.41
40502;BME280;29631;49.168;9.848;2023-04-09T01:54:44;97287.56;;;13.55;79.29
40502;BME280;29631;49.168;9.848;2023-04-09T01:57:10;97257.25;;;13.31;79.86
40502;BME280;29631;49.168;9.848;2023-04-09T01:59:36;97282.69;;;13.45;80.04
40502;BME280;29631;49.168;9.848;2023-04-09T02:02:25;97290.47;;;13.40;79.63
40502;BME280;29631;49.168;9.848;2023-04-09T02:04:53;97292.91;;;13.48;80.42
40502;BME280;29631;49.168;9.848;2023-04-09T02:07:41;97253.41;;;13.21;80.15
40502;BME280;29631;49.168;9.848;2023-04-09T02:10:09;97292.50;;;13.38;80.21
40502;BME280;29631;49.168;9.848;2023-04-09T02:12:39;97281.91;;;13.38;80.33
40502;BME280;29631;49.168;9.848;2023-04-09T02:15:07;97285.75;;;13.42;79.80
40502;BME280;29631;49.168;9.848;2023-04-09T02:17:34;97271.94;;;13.27;79.83
40502;BME280;29631;49.168;9.848;2023-04-09T02:20:00;97267.25;;;13.23;80.20
40502;BME280;29631;49.168;9.848;2023-04-09T02:22:25;97281.09;;;13.31;79.50
40502;BME280;29631;49.168;9.848;2023-04-09T02:24:51;97276.22;;;13.28;80.45
40502;BME280;29631;49.168;9.848;2023-04-09T02:27:17;97198.88;;;12.75;79.80
40502;BME280;29631;49.168;9.848;2023-04-09T02:29:42;97294.94;;;13.33;80.32
40502;BME280;29631;49.168;9.848;2023-04-09T02:32:08;97283.56;;;13.26;80.49
40502;BME280;29631;49.168;9.848;2023-04-09T02:34:34;97268.88;;;13.17;80.31
40502;BME280;29631;49.168;9.848;2023-04-09T02:37:00;97280.28;;;13.24;79.82
40502;BME280;29631;49.168;9.848;2023-04-09T02:39:26;97294.13;;;13.33;80.18
40502;BME280;29631;49.168;9.848;2023-04-09T02:41:51;97281.91;;;13.25;79.57
40502;BME280;29631;49.168;9.848;2023-04-09T02:44:17;97307.19;;;13.34;80.66
40502;BME280;29631;49.168;9.848;2023-04-09T02:46:45;97290.88;;;13.31;80.61
40502;BME280;29631;49.168;9.848;2023-04-09T02:49:11;97303.91;;;13.32;80.44
40502;BME280;29631;49.168;9.848;2023-04-09T02:51:37;97273.16;;;13.18;80.23
40502;BME280;29631;49.168;9.848;2023-04-09T02:54:03;97281.72;;;13.20;80.35
40502;BME280;29631;49.168;9.848;2023-04-09T02:56:29;97290.47;;;13.27;80.41
40502;BME280;29631;49.168;9.848;2023-04-09T02:58:55;97289.88;;;13.25;80.68
40502;BME280;29631;49.168;9.848;2023-04-09T03:01:20;97290.06;;;13.24;80.13
40502;BME280;29631;49.168;9.848;2023-04-09T03:03:47;97280.09;;;13.19;80.56
40502;BME280;29631;49.168;9.848;2023-04-09T03:06:13;97252.81;;;13.00;80.08
40502;BME280;29631;49.168;9.848;2023-04-09T03:08:38;97275.81;;;13.18;80.60
40502;BME280;29631;49.168;9.848;2023-04-09T03:11:04;97277.84;;;13.16;81.00
40502;BME280;29631;49.168;9.848;2023-04-09T03:13:30;97256.28;;;13.06;80.11
40502;BME280;29631;49.168;9.848;2023-04-09T03:15:56;97295.78;;;13.27;80.88
40502;BME280;29631;49.168;9.848;2023-04-09T03:18:21;97274.19;;;13.17;80.39
40502;BME280;29631;49.168;9.848;2023-04-09T03:20:47;97283.53;;;13.20;80.29
40502;BME280;29631;49.168;9.848;2023-04-09T03:23:13;97267.69;;;13.13;81.16
40502;BME280;29631;49.168;9.848;2023-04-09T03:25:39;97285.19;;;13.21;80.50
40502;BME280;29631;49.168;9.848;2023-04-09T03:28:05;97259.56;;;13.08;80.77
40502;BME280;29631;49.168;9.848;2023-04-09T03:30:31;97216.97;;;12.78;80.96
40502;BME280;29631;49.168;9.848;2023-04-09T03:32:56;97284.78;;;13.17;80.49
40502;BME280;29631;49.168;9.848;2023-04-09T03:35:23;97273.19;;;13.12;81.33
40502;BME280;29631;49.168;9.848;2023-04-09T03:37:49;97266.66;;;13.08;81.00
40502;BME280;29631;49.168;9.848;2023-04-09T03:40:15;97279.28;;;13.12;80.74
40502;BME280;29631;49.168;9.848;2023-04-09T03:42:44;97274.59;;;13.08;81.14
40502;BME280;29631;49.168;9.848;2023-04-09T03:45:10;97216.38;;;12.63;80.61
40502;BME280;29631;49.168;9.848;2023-04-09T03:47:35;97245.31;;;12.90;81.11
40502;BME280;29631;49.168;9.848;2023-04-09T03:50:02;97252.00;;;12.93;81.40
40502;BME280;29631;49.168;9.848;2023-04-09T03:52:27;97251.41;;;12.91;81.12
40502;BME280;29631;49.168;9.848;2023-04-09T03:54:53;97267.69;;;13.01;81.39
40502;BME280;29631;49.168;9.848;2023-04-09T03:57:19;97254.66;;;12.93;81.02
40502;BME280;29631;49.168;9.848;2023-04-09T03:59:44;97291.31;;;13.08;80.62
40502;BME280;29631;49.168;9.848;2023-04-09T04:02:10;97272.56;;;13.03;80.50
40502;BME280;29631;49.168;9.848;2023-04-09T04:04:36;97279.09;;;13.07;81.39
40502;BME280;29631;49.168;9.848;2023-04-09T04:07:02;97269.72;;;13.05;80.69
40502;BME280;29631;49.168;9.848;2023-04-09T04:09:28;97260.56;;;12.95;81.34
40502;BME280;29631;49.168;9.848;2023-04-09T04:11:54;97292.13;;;13.09;81.22
40502;BME280;29631;49.168;9.848;2023-04-09T04:14:20;97267.25;;;13.03;81.72
40502;BME280;29631;49.168;9.848;2023-04-09T04:16:46;97296.00;;;13.13;81.67
40502;BME280;29631;49.168;9.848;2023-04-09T04:19:12;97282.34;;;13.09;81.40
40502;BME280;29631;49.168;9.848;2023-04-09T04:21:37;97264.84;;;13.02;81.14
40502;BME280;29631;49.168;9.848;2023-04-09T04:24:03;97282.34;;;13.09;81.47
40502;BME280;29631;49.168;9.848;2023-04-09T04:26:30;97279.09;;;13.07;81.55
40502;BME280;29631;49.168;9.848;2023-04-09T04:28:56;97288.66;;;13.08;81.19
40502;BME280;29631;49.168;9.848;2023-04-09T04:31:21;97287.22;;;13.12;81.70
40502;BME280;29631;49.168;9.848;2023-04-09T04:33:47;97300.66;;;13.17;81.43
40502;BME280;29631;49.168;9.848;2023-04-09T04:36:13;97279.91;;;13.14;80.91
40502;BME280;29631;49.168;9.848;2023-04-09T04:38:40;97274.19;;;13.04;81.30
40502;BME280;29631;49.168;9.848;2023-04-09T04:41:06;97262.78;;;12.98;81.67
40502;BME280;29631;49.168;9.848;2023-04-09T04:43:33;97295.78;;;13.14;81.53
40502;BME280;29631;49.168;9.848;2023-04-09T04:45:59;97221.88;;;12.61;81.30
40502;BME280;29631;49.168;9.848;2023-04-09T04:48:25;97300.28;;;13.07;81.60
40502;BME280;29631;49.168;9.848;2023-04-09T04:50:57;97305.56;;;13.07;81.33
40502;BME280;29631;49.168;9.848;2023-04-09T04:53:23;97279.09;;;12.95;80.90
40502;BME280;29631;49.168;9.848;2023-04-09T04:55:49;97288.84;;;12.94;81.15
40502;BME280;29631;49.168;9.848;2023-04-09T04:58:15;97287.22;;;13.00;81.26
40502;BME280;29631;49.168;9.848;2023-04-09T05:00:41;97288.88;;;13.01;81.73
40502;BME280;29631;49.168;9.848;2023-04-09T05:03:07;97307.19;;;13.08;81.32
40502;BME280;29631;49.168;9.848;2023-04-09T05:05:32;97310.44;;;13.10;81.13
40502;BME280;29631;49.168;9.848;2023-04-09T05:07:58;97283.56;;;12.94;81.79
40502;BME280;29631;49.168;9.848;2023-04-09T05:10:25;97298.25;;;13.09;81.78
40502;BME280;29631;49.168;9.848;2023-04-09T05:12:50;97307.59;;;13.05;81.17
40502;BME280;29631;49.168;9.848;2023-04-09T05:15:16;97291.31;;;13.02;81.55
40502;BME280;29631;49.168;9.848;2023-04-09T05:17:42;97289.25;;;12.98;81.50
40502;BME280;29631;49.168;9.848;2023-04-09T05:20:09;97288.44;;;13.03;81.33
40502;BME280;29631;49.168;9.848;2023-04-09T05:22:36;97292.13;;;13.03;81.03
40502;BME280;29631;49.168;9.848;2023-04-09T05:25:02;97309.25;;;13.13;81.86
40502;BME280;29631;49.168;9.848;2023-04-09T05:27:28;97319.41;;;13.16;81.33
40502;BME280;29631;49.168;9.848;2023-04-09T05:29:55;97299.44;;;13.13;81.89
40502;BME280;29631;49.168;9.848;2023-04-09T05:32:21;97298.63;;;13.19;81.85
40502;BME280;29631;49.168;9.848;2023-04-09T05:34:47;97275.44;;;13.08;81.54
40502;BME280;29631;49.168;9.848;2023-04-09T05:37:13;97318.16;;;13.31;81.49
40502;BME280;29631;49.168;9.848;2023-04-09T05:39:39;97294.53;;;13.23;81.48
40502;BME280;29631;49.168;9.848;2023-04-09T05:42:04;97311.25;;;13.37;82.13
40502;BME280;29631;49.168;9.848;2023-04-09T05:44:30;97308.38;;;13.38;81.31
40502;BME280;29631;49.168;9.848;2023-04-09T05:46:56;97310.41;;;13.36;81.08
40502;BME280;29631;49.168;9.848;2023-04-09T05:49:22;97319.78;;;13.45;81.59
40502;BME280;29631;49.168;9.848;2023-04-09T05:51:49;97238.38;;;12.96;80.94
40502;BME280;29631;49.168;9.848;2023-04-09T05:54:15;97291.69;;;13.31;81.26
40502;BME280;29631;49.168;9.848;2023-04-09T05:56:44;97332.41;;;13.50;80.77
40502;BME280;29631;49.168;9.848;2023-04-09T05:59:09;97332.00;;;13.53;81.81
40502;BME280;29631;49.168;9.848;2023-04-09T06:01:36;97329.75;;;13.56;81.89
40502;BME280;29631;49.168;9.848;2023-04-09T06:04:02;97327.91;;;13.50;81.15
40502;BME280;29631;49.168;9.848;2023-04-09T06:06:28;97317.13;;;13.52;81.54
40502;BME280;29631;49.168;9.848;2023-04-09T06:08:53;97296.97;;;13.31;80.86
40502;BME280;29631;49.168;9.848;2023-04-09T06:11:19;97345.66;;;13.63;81.46
40502;BME280;29631;49.168;9.848;2023-04-09T06:13:46;97347.47;;;13.62;81.08
40502;BME280;29631;49.168;9.848;2023-04-09T06:16:11;97324.69;;;13.48;81.28
40502;BME280;29631;49.168;9.848;2023-04-09T06:18:37;97327.72;;;13.58;81.31
40502;BME280;29631;49.168;9.848;2023-04-09T06:21:04;97323.03;;;13.60;81.54
40502;BME280;29631;49.168;9.848;2023-04-09T06:23:32;97337.66;;;13.69;81.54
40502;BME280;29631;49.168;9.848;2023-04-09T06:25:58;97329.94;;;13.68;81.81
40502;BME280;29631;49.168;9.848;2023-04-09T06:28:24;97339.31;;;13.70;81.48
40502;BME280;29631;49.168;9.848;2023-04-09T06:30:50;97313.63;;;13.64;81.84
40502;BME280;29631;49.168;9.848;2023-04-09T06:33:18;97341.56;;;13.73;81.99
40502;BME280;29631;49.168;9.848;2023-04-09T06:35:44;97324.22;;;13.64;81.10
40502;BME280;29631;49.168;9.848;2023-04-09T06:38:10;97323.63;;;13.62;80.98
40502;BME280;29631;49.168;9.848;2023-04-09T06:40:37;97332.97;;;13.71;81.15
40502;BME280;29631;49.168;9.848;2023-04-09T06:43:04;97342.53;;;13.78;80.76
40502;BME280;29631;49.168;9.848;2023-04-09T06:45:30;97352.34;;;13.78;81.26
40502;BME280;29631;49.168;9.848;2023-04-09T06:47:57;97326.25;;;13.62;81.06
40502;BME280;29631;49.168;9.848;2023-04-09T06:50:23;97353.97;;;13.79;81.23
40502;BME280;29631;49.168;9.848;2023-04-09T06:52:50;97298.22;;;13.35;80.55
40502;BME280;29631;49.168;9.848;2023-04-09T06:55:16;97349.28;;;13.68;80.83
40502;BME280;29631;49.168;9.848;2023-04-09T06:57:42;97370.69;;;13.73;80.37
40502;BME280;29631;49.168;9.848;2023-04-09T07:00:08;97355.81;;;13.72;80.71
40502;BME280;29631;49.168;9.848;2023-04-09T07:02:35;97377.59;;;13.80;80.74
40502;BME280;29631;49.168;9.848;2023-04-09T07:05:02;97355.78;;;13.78;80.61
40502;BME280;29631;49.168;9.848;2023-04-09T07:07:28;97356.81;;;13.84;81.13
40502;BME280;29631;49.168;9.848;2023-04-09T07:09:54;97364.53;;;13.92;81.35
40502;BME280;29631;49.168;9.848;2023-04-09T07:12:27;97364.09;;;14.01;81.07
40502;BME280;29631;49.168;9.848;2023-04-09T07:14:58;97363.47;;;14.06;80.67
40502;BME280;29631;49.168;9.848;2023-04-09T07:17:24;97375.09;;;14.18;80.59
40502;BME280;29631;49.168;9.848;2023-04-09T07:19:49;97361.22;;;14.16;80.96
40502;BME280;29631;49.168;9.848;2023-04-09T07:22:20;97361.00;;;14.17;80.02
40502;BME280;29631;49.168;9.848;2023-04-09T07:24:47;97344.09;;;14.05;80.85
40502;BME280;29631;49.168;9.848;2023-04-09T07:27:19;97347.56;;;14.06;79.93
40502;BME280;29631;49.168;9.848;2023-04-09T07:29:46;97374.25;;;14.24;80.25
40502;BME280;29631;49.168;9.848;2023-04-09T07:32:11;97359.19;;;14.18;80.58
40502;BME280;29631;49.168;9.848;2023-04-09T07:34:37;97391.38;;;14.28;80.87
40502;BME280;29631;49.168;9.848;2023-04-09T07:37:03;97373.41;;;14.30;80.64
40502;BME280;29631;49.168;9.848;2023-04-09T07:39:29;97384.38;;;14.40;80.30
40502;BME280;29631;49.168;9.848;2023-04-09T07:41:55;97383.75;;;14.44;80.67
40502;BME280;29631;49.168;9.848;2023-04-09T07:44:22;97372.16;;;14.39;79.97
40502;BME280;29631;49.168;9.848;2023-04-09T07:46:47;97360.34;;;14.35;80.05
40502;BME280;29631;49.168;9.848;2023-04-09T07:49:13;97383.47;;;14.58;80.59
40502;BME280;29631;49.168;9.848;2023-04-09T07:51:39;97392.00;;;14.73;80.25
40502;BME280;29631;49.168;9.848;2023-04-09T07:54:04;97394.81;;;14.78;80.40
40502;BME280;29631;49.168;9.848;2023-04-09T07:56:30;97389.91;;;14.82;80.55
40502;BME280;29631;49.168;9.848;2023-04-09T07:58:56;97393.50;;;14.94;80.59
40502;BME280;29631;49.168;9.848;2023-04-09T08:01:22;97388.78;;;15.02;80.46
40502;BME280;29631;49.168;9.848;2023-04-09T08:03:49;97379.94;;;15.08;80.46
40502;BME280;29631;49.168;9.848;2023-04-09T08:06:15;97330.25;;;14.84;80.50
40502;BME280;29631;49.168;9.848;2023-04-09T08:08:42;97403.94;;;15.26;80.20
40502;BME280;29631;49.168;9.848;2023-04-09T08:11:08;97385.97;;;15.28;79.65
40502;BME280;29631;49.168;9.848;2023-04-09T08:13:33;97377.75;;;15.29;79.69
40502;BME280;29631;49.168;9.848;2023-04-09T08:16:00;97373.22;;;15.36;80.26
40502;BME280;29631;49.168;9.848;2023-04-09T08:18:29;97375.38;;;15.46;79.59
40502;BME280;29631;49.168;9.848;2023-04-09T08:20:56;97355.88;;;15.34;79.36
40502;BME280;29631;49.168;9.848;2023-04-09T08:23:21;97372.88;;;15.51;79.30
40502;BME280;29631;49.168;9.848;2023-04-09T08:25:47;97378.97;;;15.58;78.83
40502;BME280;29631;49.168;9.848;2023-04-09T08:28:13;97375.38;;;15.46;79.35
40502;BME280;29631;49.168;9.848;2023-04-09T08:30:39;97347.34;;;15.50;79.33
40502;BME280;29631;49.168;9.848;2023-04-09T08:33:04;97365.28;;;15.54;78.99
40502;BME280;29631;49.168;9.848;2023-04-09T08:35:30;97351.94;;;15.61;78.72
40502;BME280;29631;49.168;9.848;2023-04-09T08:37:56;97378.28;;;15.87;78.98
40502;BME280;29631;49.168;9.848;2023-04-09T08:40:22;97380.06;;;15.93;79.13
40502;BME280;29631;49.168;9.848;2023-04-09T08:42:54;97380.34;;;16.02;78.60
40502;BME280;29631;49.168;9.848;2023-04-09T08:45:22;97372.97;;;16.04;78.58
40502;BME280;29631;49.168;9.848;2023-04-09T08:47:50;97381.84;;;16.16;79.36
40502;BME280;29631;49.168;9.848;2023-04-09T08:50:16;97372.84;;;16.17;78.52
40502;BME280;29631;49.168;9.848;2023-04-09T08:52:42;97365.00;;;16.22;78.83
40502;BME280;29631;49.168;9.848;2023-04-09T08:55:11;97393.84;;;16.43;78.18
40502;BME280;29631;49.168;9.848;2023-04-09T08:57:38;97389.28;;;16.50;78.06
40502;BME280;29631;49.168;9.848;2023-04-09T09:00:05;97383.41;;;16.60;77.94
40502;BME280;29631;49.168;9.848;2023-04-09T09:02:31;97381.91;;;16.64;78.58
40502;BME280;29631;49.168;9.848;2023-04-09T09:04:56;97395.06;;;16.76;78.11
40502;BME280;29631;49.168;9.848;2023-04-09T09:07:27;97390.09;;;16.80;77.94
40502;BME280;29631;49.168;9.848;2023-04-09T09:10:00;97386.28;;;16.76;77.53
40502;BME280;29631;49.168;9.848;2023-04-09T09:12:40;97385.72;;;16.85;77.39
40502;BME280;29631;49.168;9.848;2023-04-09T09:15:28;97402.34;;;16.99;77.10
40502;BME280;29631;49.168;9.848;2023-04-09T09:17:58;97394.25;;;17.05;76.84
40502;BME280;29631;49.168;9.848;2023-04-09T09:20:24;97384.75;;;17.09;77.54
40502;BME280;29631;49.168;9.848;2023-04-09T09:22:53;97338.00;;;16.84;76.54
40502;BME280;29631;49.168;9.848;2023-04-09T09:25:20;97403.47;;;17.21;76.23
40502;BME280;29631;49.168;9.848;2023-04-09T09:27:51;97383.28;;;17.25;76.21
40502;BME280;29631;49.168;9.848;2023-04-09T09:30:25;97402.38;;;17.40;76.49
40502;BME280;29631;49.168;9.848;2023-04-09T09:33:06;97383.13;;;17.38;75.72
40502;BME280;29631;49.168;9.848;2023-04-09T09:35:51;97390.09;;;17.39;75.73
40502;BME280;29631;49.168;9.848;2023-04-09T09:38:19;97404.56;;;17.43;75.84
40502;BME280;29631;49.168;9.848;2023-04-09T09:40:46;97384.03;;;17.32;75.72
40502;BME280;29631;49.168;9.848;2023-04-09T09:43:13;97365.13;;;17.22;75.79
40502;BME280;29631;49.168;9.848;2023-04-09T09:45:40;97397.16;;;17.45;75.91
40502;BME280;29631;49.168;9.848;2023-04-09T09:48:09;97373.06;;;17.40;75.24
40502;BME280;29631;49.168;9.848;2023-04-09T09:50:37;97363.59;;;17.26;75.14
40502;BME280;29631;49.168;9.848;2023-04-09T09:53:05;97392.06;;;17.43;74.93
40502;BME280;29631;49.168;9.848;2023-04-09T09:55:33;97393.47;;;17.46;74.91
40502;BME280;29631;49.168;9.848;2023-04-09T09:58:18;97383.47;;;17.41;74.37
40502;BME280;29631;49.168;9.848;2023-04-09T10:00:48;97388.59;;;17.54;74.70
40502;BME280;29631;49.168;9.848;2023-04-09T10:03:24;97384.91;;;17.55;73.54
40502;BME280;29631;49.168;9.848;2023-04-09T10:05:50;97356.81;;;17.41;74.35
40502;BME280;29631;49.168;9.848;2023-04-09T10:08:16;97339.09;;;17.35;74.27
40502;BME280;29631;49.168;9.848;2023-04-09T10:10:42;97364.97;;;17.57;74.08
40502;BME280;29631;49.168;9.848;2023-04-09T10:13:20;97374.00;;;17.68;73.70
40502;BME280;29631;49.168;9.848;2023-04-09T10:15:48;97379.81;;;17.76;73.62
40502;BME280;29631;49.168;9.848;2023-04-09T10:18:14;97364.84;;;17.75;73.42
40502;BME280;29631;49.168;9.848;2023-04-09T10:20:50;97377.13;;;17.99;74.04
40502;BME280;29631;49.168;9.848;2023-04-09T10:23:35;97374.94;;;18.08;72.99
40502;BME280;29631;49.168;9.848;2023-04-09T10:26:02;97369.00;;;18.17;73.64
40502;BME280;29631;49.168;9.848;2023-04-09T10:28:28;97374.59;;;18.27;73.46
40502;BME280;29631;49.168;9.848;2023-04-09T10:30:54;97338.38;;;18.08;73.30
40502;BME280;29631;49.168;9.848;2023-04-09T10:33:25;97359.84;;;18.24;73.19
40502;BME280;29631;49.168;9.848;2023-04-09T10:35:52;97346.25;;;18.26;72.83
40502;BME280;29631;49.168;9.848;2023-04-09T10:41:15;97370.75;;;18.34;73.08
40502;BME280;29631;49.168;9.848;2023-04-09T10:43:46;97357.16;;;18.36;72.72
40502;BME280;29631;49.168;9.848;2023-04-09T10:46:29;97375.00;;;18.47;72.87
40502;BME280;29631;49.168;9.848;2023-04-09T10:49:14;97356.81;;;18.44;72.37
40502;BME280;29631;49.168;9.848;2023-04-09T10:54:44;97357.06;;;18.59;72.09
40502;BME280;29631;49.168;9.848;2023-04-09T10:57:17;97365.06;;;18.70;71.45
40502;BME280;29631;49.168;9.848;2023-04-09T10:59:50;97359.00;;;18.75;71.89
40502;BME280;29631;49.168;9.848;2023-04-09T11:02:53;97361.31;;;18.83;71.91
40502;BME280;29631;49.168;9.848;2023-04-09T11:05:33;97351.16;;;18.85;71.81
40502;BME280;29631;49.168;9.848;2023-04-09T11:08:11;97352.41;;;18.93;71.50
40502;BME280;29631;49.168;9.848;2023-04-09T11:10:42;97350.53;;;18.94;71.69
40502;BME280;29631;49.168;9.848;2023-04-09T11:13:16;97345.88;;;19.01;71.01
40502;BME280;29631;49.168;9.848;2023-04-09T11:15:44;97326.56;;;18.99;71.66
40502;BME280;29631;49.168;9.848;2023-04-09T11:18:25;97347.09;;;19.21;71.41
40502;BME280;29631;49.168;9.848;2023-04-09T11:20:59;97316.19;;;19.14;71.19
40502;BME280;29631;49.168;9.848;2023-04-09T11:23:26;97334.91;;;19.30;71.38
40502;BME280;29631;49.168;9.848;2023-04-09T11:25:52;97339.78;;;19.33;70.69
40502;BME280;29631;49.168;9.848;2023-04-09T11:28:19;97329.50;;;19.25;70.71
40502;BME280;29631;49.168;9.848;2023-04-09T11:30:45;97336.53;;;19.31;71.10
40502;BME280;29631;49.168;9.848;2023-04-09T11:33:12;97326.75;;;19.37;71.18
40502;BME280;29631;49.168;9.848;2023-04-09T11:35:38;97319.53;;;19.37;70.79
40502;BME280;29631;49.168;9.848;2023-04-09T11:38:09;97332.56;;;19.50;70.71
40502;BME280;29631;49.168;9.848;2023-04-09T11:40:37;97321.63;;;19.52;70.73
40502;BME280;29631;49.168;9.848;2023-04-09T11:43:09;97327.88;;;19.57;70.73
40502;BME280;29631;49.168;9.848;2023-04-09T11:45:35;97341.91;;;19.64;70.92
40502;BME280;29631;49.168;9.848;2023-04-09T11:48:01;97336.63;;;19.69;70.36
40502;BME280;29631;49.168;9.848;2023-04-09T11:50:27;97314.97;;;19.54;69.29
40502;BME280;29631;49.168;9.848;2023-04-09T11:52:53;97324.41;;;19.57;69.01
40502;BME280;29631;49.168;9.848;2023-04-09T11:55:28;97294.22;;;19.28;68.60
40502;BME280;29631;49.168;9.848;2023-04-09T11:57:57;97335.72;;;19.64;68.68
40502;BME280;29631;49.168;9.848;2023-04-09T12:00:25;97335.56;;;19.70;68.94
40502;BME280;29631;49.168;9.848;2023-04-09T12:03:02;97327.78;;;19.68;68.84
40502;BME280;29631;49.168;9.848;2023-04-09T12:05:30;97331.44;;;19.79;69.03
40502;BME280;29631;49.168;9.848;2023-04-09T12:08:03;97342.84;;;19.91;70.11
40502;BME280;29631;49.168;9.848;2023-04-09T12:10:36;97336.03;;;20.00;69.58
40502;BME280;29631;49.168;9.848;2023-04-09T12:13:08;97337.16;;;20.04;69.28
40502;BME280;29631;49.168;9.848;2023-04-09T12:15:40;97337.72;;;20.06;69.60
40502;BME280;29631;49.168;9.848;2023-04-09T12:18:12;97306.50;;;19.95;69.41
40502;BME280;29631;49.168;9.848;2023-04-09T12:20:40;97319.47;;;20.03;69.32
40502;BME280;29631;49.168;9.848;2023-04-09T12:23:11;97338.44;;;20.18;69.56
40502;BME280;29631;49.168;9.848;2023-04-09T12:25:42;97328.16;;;20.10;68.93
40502;BME280;29631;49.168;9.848;2023-04-09T12:28:11;97330.19;;;20.03;68.42
40502;BME280;29631;49.168;9.848;2023-04-09T12:30:38;97339.28;;;20.02;68.64
40502;BME280;29631;49.168;9.848;2023-04-09T12:33:04;97344.00;;;19.95;68.48
40502;BME280;29631;49.168;9.848;2023-04-09T12:35:30;97325.63;;;19.87;68.91
40502;BME280;29631;49.168;9.848;2023-04-09T12:37:56;97323.53;;;19.89;68.74
40502;BME280;29631;49.168;9.848;2023-04-09T12:40:23;97317.69;;;19.92;68.83
40502;BME280;29631;49.168;9.848;2023-04-09T12:42:50;97329.56;;;19.96;68.74
40502;BME280;29631;49.168;9.848;2023-04-09T12:45:17;97335.34;;;19.93;68.36
40502;BME280;29631;49.168;9.848;2023-04-09T12:47:44;97320.22;;;19.82;68.22
40502;BME280;29631;49.168;9.848;2023-04-09T12:50:12;97326.28;;;19.77;68.01
40502;BME280;29631;49.168;9.848;2023-04-09T12:52:38;97334.59;;;19.76;68.27
40502;BME280;29631;49.168;9.848;2023-04-09T12:55:05;97314.16;;;19.70;67.76
40502;BME280;29631;49.168;9.848;2023-04-09T12:57:31;97315.78;;;19.71;67.38
40502;BME280;29631;49.168;9.848;2023-04-09T12:59:57;97314.72;;;19.72;67.61
40502;BME280;29631;49.168;9.848;2023-04-09T13:02:23;97251.44;;;19.45;67.88
40502;BME280;29631;49.168;9.848;2023-04-09T13:04:49;97324.31;;;19.89;68.32
40502;BME280;29631;49.168;9.848;2023-04-09T13:07:16;97315.13;;;19.97;67.91
40502;BME280;29631;49.168;9.848;2023-04-09T13:09:44;97314.59;;;20.00;67.93
40502;BME280;29631;49.168;9.848;2023-04-09T13:12:10;97321.75;;;20.11;68.26
40502;BME280;29631;49.168;9.848;2023-04-09T13:14:40;97304.47;;;20.02;68.18
40502;BME280;29631;49.168;9.848;2023-04-09T13:17:06;97305.56;;;20.06;67.83
40502;BME280;29631;49.168;9.848;2023-04-09T13:19:32;97320.59;;;20.07;67.96
40502;BME280;29631;49.168;9.848;2023-04-09T13:21:57;97292.66;;;19.98;67.75